Time;durP1;ratioP1;P1;durP2;ratioP2;P2;SDS_P1;SDS_P2;PMS_P1;PMS_P2;Temp;Humidity;BMP_temperature;BMP_pressure;BME280_temperature;BME280_humidity;BME280_pressure;Samples;Min_cycle;Max_cycle;Signal;HPM_P1;HPM_P2
2022/02/03 00:00:22;;;;;;;13.63;9.23;;;7.60;99.90;;;;;;5088189;28;20201;-82
2022/02/03 00:03:03;;;;;;;10.60;7.70;;;6.00;99.90;;;;;;5088692;28;20201;-83
2022/02/03 00:05:40;;;;;;;13.52;8.77;;;6.00;99.90;;;;;;5083487;28;20199;-83
2022/02/03 00:08:13;;;;;;;9.65;8.65;;;;;;;;;;5088365;28;20294;-83
2022/02/03 00:11:02;;;;;;;8.00;7.20;;;;;;;;;;5088760;28;20268;-83
2022/02/03 00:16:43;;;;;;;10.82;7.88;;;;;;;;;;5087924;28;20203;-83
2022/02/03 00:25:00;;;;;;;11.80;9.13;;;6.00;99.90;;;;;;5087160;28;20753;-83
2022/02/03 00:27:47;;;;;;;10.65;8.02;;;6.00;99.90;;;;;;5088440;28;20210;-83
2022/02/03 00:30:18;;;;;;;10.88;8.30;;;;;;;;;;5088634;28;20225;-83
2022/02/03 00:33:05;;;;;;;9.27;7.35;;;6.00;99.90;;;;;;5088910;28;20304;-84
2022/02/03 00:49:23;;;;;;;9.65;7.50;;;;;;;;;;5087969;28;20679;-84
2022/02/03 00:51:52;;;;;;;10.00;6.95;;;;;;;;;;5088420;28;20194;-84
2022/02/03 00:54:23;;;;;;;7.05;6.35;;;6.10;99.90;;;;;;5086702;28;20202;-85
2022/02/03 00:56:53;;;;;;;9.60;7.13;;;;;;;;;;5088358;28;20195;-85
2022/02/03 00:59:26;;;;;;;7.10;6.15;;;;;;;;;;5086791;28;20199;-85
2022/02/03 01:01:58;;;;;;;8.15;6.55;;;;;;;;;;5088548;28;20222;-84
2022/02/03 01:04:26;;;;;;;7.15;5.95;;;;;;;;;;5087483;28;20226;-85
2022/02/03 01:06:57;;;;;;;6.38;5.38;;;6.40;99.90;;;;;;5088151;28;20195;-85
2022/02/03 01:09:28;;;;;;;7.80;5.75;;;6.20;99.90;;;;;;5088401;28;20226;-85
2022/02/03 01:12:06;;;;;;;7.38;5.85;;;6.20;99.90;;;;;;5087736;28;20198;-85
2022/02/03 01:14:44;;;;;;;7.13;5.68;;;6.80;99.90;;;;;;5087353;28;20663;-85
2022/02/03 01:17:26;;;;;;;6.55;5.95;;;6.20;99.90;;;;;;5087530;28;20194;-85
2022/02/03 01:34:10;;;;;;;6.43;5.80;;;6.50;99.90;;;;;;5088195;28;20207;-85
2022/02/03 01:37:12;;;;;;;7.72;6.13;;;6.20;99.90;;;;;;5087416;28;20635;-85
2022/02/03 01:45:21;;;;;;;7.68;5.70;;;6.70;99.90;;;;;;5087765;28;21032;-85
2022/02/03 01:47:57;;;;;;;6.50;5.50;;;6.30;99.90;;;;;;5072767;28;20303;-85
2022/02/03 01:53:10;;;;;;;6.07;5.43;;;6.10;99.90;;;;;;5087560;28;20195;-84
2022/02/03 01:55:42;;;;;;;6.97;5.78;;;6.30;99.90;;;;;;5089477;28;20195;-84
2022/02/03 01:58:13;;;;;;;6.35;5.72;;;6.30;99.90;;;;;;5090156;28;20949;-84
2022/02/03 02:00:42;;;;;;;6.80;6.10;;;6.30;99.90;;;;;;5091700;28;20210;-84
2022/02/03 02:03:16;;;;;;;6.90;6.15;;;6.30;99.90;;;;;;5090897;28;20605;-84
2022/02/03 02:06:04;;;;;;;7.45;5.88;;;6.20;99.90;;;;;;5091146;28;20190;-84
2022/02/03 02:08:42;;;;;;;7.88;6.03;;;6.20;99.90;;;;;;5091064;28;20218;-84
2022/02/03 02:11:44;;;;;;;7.72;6.70;;;6.30;99.90;;;;;;5091224;28;20691;-85
2022/02/03 02:14:46;;;;;;;9.75;7.35;;;6.20;99.90;;;;;;5082533;28;20324;-85
2022/02/03 02:36:50;;;;;;;9.18;7.13;;;6.20;99.90;;;;;;5061841;28;20213;-84
2022/02/03 02:37:19;;;;;;;8.68;7.15;;;6.20;99.90;;;;;;5090379;28;20751;-84
2022/02/03 02:40:28;;;;;;;8.52;6.63;;;6.20;99.90;;;;;;5090228;28;20211;-84
2022/02/03 02:43:03;;;;;;;6.10;5.10;;;6.10;99.90;;;;;;5090230;28;20203;-84
2022/02/03 02:45:45;;;;;;;8.60;6.43;;;6.20;99.90;;;;;;5089986;28;20195;-84
2022/02/03 02:48:24;;;;;;;7.88;5.97;;;6.20;99.90;;;;;;5090426;28;20203;-84
2022/02/03 02:50:58;;;;;;;8.00;6.13;;;6.20;99.90;;;;;;5089752;28;20632;-84
2022/02/03 02:53:38;;;;;;;6.75;6.05;;;6.20;99.90;;;;;;5090727;28;20202;-84
2022/02/03 02:56:19;;;;;;;7.13;5.97;;;6.30;99.90;;;;;;5089415;28;20431;-84
2022/02/03 02:59:14;;;;;;;7.82;6.30;;;6.10;99.90;;;;;;5088993;28;20307;-84
2022/02/03 03:29:55;;;;;;;8.63;7.18;;;6.30;99.90;;;;;;5071892;28;20565;-84
2022/02/03 03:32:43;;;;;;;7.20;5.82;;;6.20;99.90;;;;;;5089377;28;20686;-84
2022/02/03 03:35:27;;;;;;;10.57;6.80;;;6.20;99.90;;;;;;5088783;28;20226;-83
2022/02/03 03:37:58;;;;;;;7.15;6.40;;;6.20;99.90;;;;;;5089570;28;20285;-83
2022/02/03 03:40:28;;;;;;;9.07;7.22;;;6.20;99.90;;;;;;5089735;28;20248;-83
2022/02/03 03:43:02;;;;;;;7.65;6.95;;;6.20;99.90;;;;;;5080189;28;20233;-84
2022/02/03 03:45:31;;;;;;;7.60;6.22;;;6.10;99.90;;;;;;5071463;28;20205;-83
2022/02/03 03:48:02;;;;;;;10.15;7.00;;;6.10;99.90;;;;;;5088831;28;20297;-83
2022/02/03 03:50:30;;;;;;;7.88;6.30;;;6.10;99.90;;;;;;5089238;28;20588;-83
2022/02/03 03:53:08;;;;;;;7.40;5.85;;;6.10;99.90;;;;;;5088730;28;20570;-84
2022/02/03 03:55:45;;;;;;;7.65;6.85;;;5.90;99.90;;;;;;5087838;28;20222;-83
2022/02/03 04:30:27;;;;;;;8.95;7.05;;;5.70;99.90;;;;;;5069608;28;20195;-84
2022/02/03 05:03:30;;;;;;;8.85;6.20;;;6.00;99.90;;;;;;5089537;28;20246;-83
2022/02/03 05:06:12;;;;;;;6.75;5.82;;;5.80;99.90;;;;;;5090485;28;20306;-82
2022/02/03 05:08:58;;;;;;;7.75;6.03;;;5.70;99.90;;;;;;5085939;28;20301;-83
2022/02/03 05:12:11;;;;;;;7.72;6.15;;;5.70;99.90;;;;;;5081920;28;20203;-82
2022/02/03 05:15:41;;;;;;;6.38;5.70;;;5.90;99.90;;;;;;5081451;28;20316;-83
2022/02/03 05:19:09;;;;;;;7.43;6.43;;;5.80;99.90;;;;;;5071334;28;20206;-83
2022/02/03 05:43:24;;;;;;;14.02;12.70;;;5.50;99.90;;;;;;5065811;28;20204;-84
2022/02/03 05:46:22;;;;;;;8.07;7.25;;;5.50;99.90;;;;;;5080469;28;20206;-85
2022/02/03 05:49:04;;;;;;;8.63;7.43;;;5.40;99.90;;;;;;5093805;28;20199;-84
2022/02/03 05:51:59;;;;;;;8.95;7.32;;;5.50;99.90;;;;;;5091953;28;20563;-85
2022/02/03 05:54:47;;;;;;;6.90;6.15;;;5.30;99.90;;;;;;5098849;28;20199;-85
2022/02/03 06:03:20;;;;;;;6.82;6.13;;;5.30;99.90;;;;;;5092148;28;20832;-85
2022/02/03 06:05:59;;;;;;;8.32;6.43;;;5.40;99.90;;;;;;5085018;28;20196;-85
2022/02/03 06:08:33;;;;;;;9.77;6.80;;;5.50;99.90;;;;;;5086973;28;20675;-86
2022/02/03 06:13:51;;;;;;;8.48;7.60;;;5.40;99.90;;;;;;5091752;28;20598;-85
2022/02/03 06:16:39;;;;;;;10.77;7.82;;;5.50;99.90;;;;;;5080212;28;20554;-84
2022/02/03 06:21:55;;;;;;;7.85;6.90;;;5.50;99.90;;;;;;5071364;28;20683;-84
2022/02/03 06:24:34;;;;;;;8.43;6.32;;;5.60;99.90;;;;;;5081835;28;20195;-85
2022/02/03 06:29:51;;;;;;;7.30;6.53;;;;;;;;;;5064120;28;20699;-84
2022/02/03 06:32:18;;;;;;;7.72;6.93;;;5.60;99.90;;;;;;5062484;28;20277;-84
2022/02/03 06:34:45;;;;;;;7.40;6.53;;;5.60;99.90;;;;;;5088888;28;20660;-84
2022/02/03 06:37:13;;;;;;;9.27;7.63;;;5.60;99.90;;;;;;5086491;28;20245;-84
2022/02/03 06:39:40;;;;;;;6.72;6.10;;;5.80;99.90;;;;;;5073102;28;20321;-84
2022/02/03 06:42:08;;;;;;;6.53;5.93;;;5.60;99.90;;;;;;5070477;28;20283;-84
2022/02/03 06:44:40;;;;;;;10.65;7.95;;;5.70;99.90;;;;;;5083425;28;20721;-84
2022/02/03 06:47:14;;;;;;;7.95;7.15;;;6.30;99.90;;;;;;5087664;28;20191;-84
2022/02/03 06:49:50;;;;;;;8.13;6.95;;;5.90;99.90;;;;;;5081911;28;20287;-84
2022/02/03 06:52:24;;;;;;;8.15;7.20;;;5.70;99.90;;;;;;5072694;28;20191;-84
2022/02/03 06:55:03;;;;;;;11.85;8.23;;;;;;;;;;5054645;28;20630;-84
2022/02/03 06:57:35;;;;;;;8.93;7.20;;;5.80;99.90;;;;;;5068522;28;20222;-84
2022/02/03 07:00:06;;;;;;;10.10;7.03;;;5.90;99.90;;;;;;5071048;28;20215;-83
2022/02/03 07:02:39;;;;;;;8.25;6.63;;;6.00;99.90;;;;;;5070371;28;20249;-84
2022/02/03 07:05:07;;;;;;;10.25;7.30;;;6.10;99.90;;;;;;5068160;28;20209;-84
2022/02/03 07:07:39;;;;;;;7.85;7.05;;;6.00;99.90;;;;;;5071538;28;20596;-83
2022/02/03 07:10:07;;;;;;;11.07;8.02;;;5.90;99.90;;;;;;5085262;28;20199;-83
2022/02/03 07:12:34;;;;;;;9.90;7.45;;;5.90;99.90;;;;;;5070221;28;20230;-83
2022/02/03 07:15:03;;;;;;;10.35;8.70;;;5.90;99.90;;;;;;5069370;28;20191;-83
2022/02/03 07:17:30;;;;;;;10.68;9.07;;;5.80;99.90;;;;;;5076861;28;20285;-84
2022/02/03 07:20:01;;;;;;;10.02;8.07;;;6.00;99.90;;;;;;5075485;28;20227;-84
2022/02/03 07:22:28;;;;;;;8.90;7.90;;;;;;;;;;5068756;28;20207;-84
2022/02/03 07:24:57;;;;;;;12.50;9.93;;;6.00;99.90;;;;;;5079342;28;20207;-84
2022/02/03 07:27:25;;;;;;;12.30;7.78;;;6.00;99.90;;;;;;5090605;28;20260;-84
2022/02/03 07:29:52;;;;;;;11.95;8.50;;;;;;;;;;5082366;28;20229;-85
2022/02/03 07:32:21;;;;;;;9.73;8.05;;;5.70;99.90;;;;;;5089708;28;20210;-84
2022/02/03 07:34:50;;;;;;;12.60;8.05;;;6.30;99.90;;;;;;5075033;28;20688;-84
2022/02/03 07:37:17;;;;;;;9.85;7.85;;;6.10;99.90;;;;;;5065911;28;20249;-84
2022/02/03 07:39:45;;;;;;;9.10;6.95;;;;;;;;;;5074810;28;20227;-84
2022/02/03 07:42:13;;;;;;;9.88;7.90;;;6.20;99.90;;;;;;5069782;28;20206;-84
2022/02/03 07:44:41;;;;;;;9.85;8.82;;;6.30;99.90;;;;;;5068970;28;20730;-85
2022/02/03 07:47:08;;;;;;;9.20;7.78;;;6.20;99.90;;;;;;5070429;28;20207;-84
2022/02/03 07:49:35;;;;;;;8.88;7.95;;;6.20;99.90;;;;;;5074122;28;20207;-84
2022/02/03 07:52:03;;;;;;;10.68;7.68;;;6.20;99.90;;;;;;5069263;28;20206;-85
2022/02/03 07:54:31;;;;;;;9.73;8.10;;;6.30;99.90;;;;;;5070006;28;20278;-84
2022/02/03 07:56:58;;;;;;;8.75;7.85;;;6.50;99.90;;;;;;5082126;28;20244;-84
2022/02/03 07:59:27;;;;;;;8.35;7.15;;;6.90;99.90;;;;;;5088564;28;20229;-84
2022/02/03 08:01:53;;;;;;;8.63;7.32;;;6.30;99.90;;;;;;5084971;28;20195;-84
2022/02/03 08:04:25;;;;;;;8.95;7.70;;;6.30;99.90;;;;;;5085906;28;20738;-85
2022/02/03 08:06:52;;;;;;;8.52;7.05;;;6.40;99.90;;;;;;5085334;28;20210;-85
2022/02/03 08:09:23;;;;;;;8.45;6.95;;;6.40;99.90;;;;;;5068796;28;20633;-84
2022/02/03 08:11:52;;;;;;;8.43;6.40;;;7.10;99.90;;;;;;5088132;28;20583;-84
2022/02/03 08:14:23;;;;;;;7.25;6.55;;;6.50;99.90;;;;;;5076643;28;20614;-84
2022/02/03 08:16:55;;;;;;;7.17;5.93;;;6.50;99.90;;;;;;5069423;28;20198;-84
2022/02/03 08:19:27;;;;;;;6.47;5.80;;;;;;;;;;5077073;28;20674;-84
2022/02/03 08:22:01;;;;;;;6.17;5.57;;;6.60;99.90;;;;;;5084053;28;20873;-84
2022/02/03 08:24:31;;;;;;;8.03;6.73;;;;;;;;;;5077289;28;21121;-84
2022/02/03 08:27:08;;;;;;;8.10;7.30;;;6.60;99.90;;;;;;5084046;28;21194;-84
2022/02/03 08:32:33;;;;;;;11.88;7.50;;;6.70;99.90;;;;;;5105398;27;20740;-83
2022/02/03 08:35:21;;;;;;;8.30;7.10;;;6.80;99.90;;;;;;5105245;28;20225;-83
2022/02/03 08:37:59;;;;;;;10.87;7.60;;;7.10;99.90;;;;;;5105621;28;20626;-83
2022/02/03 08:40:30;;;;;;;10.00;7.90;;;7.00;99.90;;;;;;5103413;28;20635;-83
2022/02/03 08:42:57;;;;;;;8.43;7.03;;;7.10;99.90;;;;;;5100676;28;20727;-83
2022/02/03 08:45:24;;;;;;;8.07;6.63;;;6.90;99.90;;;;;;5105298;28;20677;-83
2022/02/03 08:47:52;;;;;;;8.23;6.60;;;7.30;99.90;;;;;;5104836;28;20624;-83
2022/02/03 08:50:21;;;;;;;8.83;7.20;;;7.00;99.90;;;;;;5105200;28;20677;-83
2022/02/03 08:52:57;;;;;;;7.60;6.77;;;7.10;99.90;;;;;;5105290;28;20624;-83
2022/02/03 08:55:31;;;;;;;7.40;6.57;;;6.20;99.90;;;;;;5103148;28;20631;-84
2022/02/03 09:28:02;;;;;;;6.60;5.97;;;7.30;99.90;;;;;;5070522;28;20631;-83
2022/02/03 09:37:24;;;;;;;5.70;5.10;;;7.40;99.90;;;;;;5025425;28;20639;-83
2022/02/03 09:54:13;;;;;;;3.90;3.40;;;7.40;99.90;;;;;;5067336;28;20707;-83
2022/02/03 09:57:04;;;;;;;5.83;3.40;;;7.70;99.90;;;;;;5051188;28;20626;-83
2022/02/03 09:59:38;;;;;;;3.80;3.50;;;7.70;99.90;;;;;;5069981;28;20621;-83
2022/02/03 10:02:10;;;;;;;3.47;3.17;;;8.50;99.90;;;;;;5070138;28;20953;-83
2022/02/03 10:04:45;;;;;;;3.20;2.87;;;7.90;99.90;;;;;;5069795;28;20647;-83
2022/02/03 10:07:19;;;;;;;2.70;2.50;;;7.90;99.90;;;;;;5069759;28;20639;-83
2022/02/03 10:09:49;;;;;;;3.27;2.97;;;7.90;99.90;;;;;;5070155;28;20629;-82
2022/02/03 10:12:17;;;;;;;4.00;3.60;;;7.90;99.90;;;;;;5070209;28;20660;-82
2022/02/03 10:14:46;;;;;;;4.03;3.63;;;8.00;99.90;;;;;;5068454;28;20625;-83
2022/02/03 10:17:17;;;;;;;2.70;2.33;;;8.30;99.90;;;;;;5070329;28;20661;-83
2022/02/03 10:19:45;;;;;;;2.67;2.47;;;7.90;99.90;;;;;;5070321;28;20636;-83
2022/02/03 10:22:14;;;;;;;3.83;2.90;;;8.00;99.90;;;;;;5070291;28;20790;-83
2022/02/03 10:24:44;;;;;;;3.17;2.87;;;7.90;99.90;;;;;;5068561;28;20679;-83
2022/02/03 10:27:28;;;;;;;4.03;2.67;;;7.70;99.90;;;;;;5070274;28;20870;-83
2022/02/03 10:30:11;;;;;;;3.63;2.50;;;7.90;99.90;;;;;;5070022;28;20671;-83
2022/02/03 10:32:39;;;;;;;2.43;2.13;;;8.10;99.90;;;;;;5070051;28;20749;-83
2022/02/03 10:35:24;;;;;;;2.93;2.50;;;8.20;99.90;;;;;;5067356;28;20699;-83
2022/02/03 10:50:09;;;;;;;2.07;1.93;;;8.50;99.90;;;;;;5069052;28;20614;-83
2022/02/03 10:55:43;;;;;;;2.33;2.13;;;8.50;99.90;;;;;;5059701;28;20949;-83
2022/02/03 10:58:26;;;;;;;2.33;2.13;;;8.50;99.90;;;;;;5069706;28;20716;-83
2022/02/03 11:01:18;;;;;;;1.90;1.73;;;8.50;99.90;;;;;;5049634;28;21163;-83
2022/02/03 11:06:53;;;;;;;3.20;2.90;;;8.50;99.90;;;;;;5006207;28;20734;-83
2022/02/03 11:09:29;;;;;;;1.70;1.60;;;8.60;99.90;;;;;;5058553;28;20637;-83
2022/02/03 11:11:59;;;;;;;1.93;1.83;;;8.80;99.90;;;;;;5069025;28;20676;-83
2022/02/03 11:14:26;;;;;;;1.90;1.63;;;8.80;99.90;;;;;;5068405;28;20630;-83
2022/02/03 11:16:54;;;;;;;2.17;1.97;;;8.80;99.90;;;;;;5068461;28;20614;-83
2022/02/03 11:19:27;;;;;;;1.13;1.00;;;8.70;99.90;;;;;;5068190;28;21190;-83
2022/02/03 11:22:03;;;;;;;1.67;1.57;;;8.80;99.90;;;;;;5069144;28;20678;-83
2022/02/03 11:24:33;;;;;;;2.43;1.73;;;8.90;99.90;;;;;;5068018;28;21080;-83
2022/02/03 11:27:15;;;;;;;1.60;1.50;;;8.90;99.90;;;;;;5068500;28;21175;-83
2022/02/03 11:33:25;;;;;;;1.60;1.50;;;9.10;99.90;;;;;;5046896;28;20672;-83
2022/02/03 11:50:51;;;;;;;2.50;1.80;;;9.10;99.90;;;;;;5060069;28;20768;-83
2022/02/03 12:02:01;;;;;;;1.80;1.70;;;9.10;99.90;;;;;;5052208;28;20642;-82
2022/02/03 12:05:00;;;;;;;2.30;2.10;;;9.30;99.90;;;;;;5062743;28;20629;-83
2022/02/03 12:08:03;;;;;;;2.83;2.00;;;9.00;99.90;;;;;;5068418;28;20630;-83
2022/02/03 12:16:08;;;;;;;1.83;1.27;;;9.30;99.90;;;;;;5064999;28;21043;-83
2022/02/03 12:18:59;;;;;;;1.77;1.60;;;9.40;99.90;;;;;;5068089;28;20991;-83
2022/02/03 12:21:28;;;;;;;2.23;2.03;;;9.30;99.90;;;;;;5068143;28;21232;-83
2022/02/03 12:27:04;;;;;;;2.20;2.00;;;9.40;99.90;;;;;;5042290;28;21071;-83
2022/02/03 12:29:38;;;;;;;1.40;1.30;;;9.50;99.90;;;;;;5063077;28;20620;-83
2022/02/03 12:32:15;;;;;;;1.67;1.57;;;9.50;99.90;;;;;;5066941;28;20727;-83
2022/02/03 12:40:26;;;;;;;2.23;2.03;;;9.50;99.90;;;;;;5051762;28;20625;-83
2022/02/03 12:42:57;;;;;;;1.97;1.60;;;9.70;99.90;;;;;;5067586;28;20648;-83
2022/02/03 12:45:26;;;;;;;1.17;1.07;;;9.70;99.90;;;;;;5064770;28;21071;-83
2022/02/03 12:47:56;;;;;;;1.57;1.47;;;9.70;99.90;;;;;;5067481;28;20642;-83
2022/02/03 12:50:25;;;;;;;1.57;1.47;;;9.70;99.90;;;;;;5067562;28;20626;-83
2022/02/03 12:52:53;;;;;;;2.53;1.93;;;9.80;99.90;;;;;;5067035;28;21256;-83
2022/02/03 12:55:33;;;;;;;1.50;1.40;;;10.10;99.90;;;;;;5065298;28;20630;-83
2022/02/03 12:58:02;;;;;;;2.13;2.03;;;9.80;99.90;;;;;;5066454;28;20625;-83
2022/02/03 13:00:40;;;;;;;2.10;1.80;;;9.80;99.90;;;;;;5066947;28;20657;-83
2022/02/03 13:03:10;;;;;;;1.40;1.30;;;9.80;99.90;;;;;;5067384;28;20625;-83
2022/02/03 13:05:39;;;;;;;2.73;2.50;;;9.80;99.90;;;;;;5066285;28;20646;-83
2022/02/03 13:08:09;;;;;;;1.47;1.37;;;10.30;99.90;;;;;;5067126;28;20622;-83
2022/02/03 13:10:39;;;;;;;1.23;1.13;;;9.90;99.90;;;;;;5067572;28;21022;-83
2022/02/03 13:13:20;;;;;;;3.93;1.40;;;9.90;99.90;;;;;;5067155;28;21233;-84
2022/02/03 13:15:47;;;;;;;2.00;1.80;;;9.80;99.90;;;;;;5066970;28;21012;-82
2022/02/03 13:18:20;;;;;;;4.00;1.63;;;9.60;99.90;;;;;;5069165;28;20703;-83
2022/02/03 13:20:55;;;;;;;1.83;1.17;;;9.80;99.90;;;;;;5071110;28;20622;-84
2022/02/03 13:23:26;;;;;;;1.67;1.43;;;9.80;99.90;;;;;;5070523;28;21244;-83
2022/02/03 13:26:06;;;;;;;1.90;1.80;;;9.80;99.90;;;;;;5070312;28;20725;-83
2022/02/03 13:28:42;;;;;;;3.77;2.30;;;9.40;99.90;;;;;;5068648;28;20665;-84
2022/02/03 13:31:32;;;;;;;3.90;1.87;;;9.60;99.90;;;;;;5071231;28;20649;-83
2022/02/03 13:34:13;;;;;;;2.53;2.33;;;9.50;99.90;;;;;;5069277;28;20657;-84
2022/02/03 13:36:45;;;;;;;3.40;1.90;;;9.60;99.90;;;;;;5050803;28;20618;-83
2022/02/03 13:39:25;;;;;;;2.10;2.00;;;9.60;99.90;;;;;;5063956;28;21187;-83
2022/02/03 13:42:04;;;;;;;1.83;1.73;;;9.60;99.90;;;;;;5069873;28;21408;-83
2022/02/03 13:44:32;;;;;;;1.93;1.83;;;9.70;99.90;;;;;;5069806;28;20637;-83
2022/02/03 13:46:59;;;;;;;3.20;2.40;;;9.60;99.90;;;;;;5070960;28;20729;-83
2022/02/03 13:49:28;;;;;;;2.23;1.47;;;9.70;99.90;;;;;;5070002;28;20606;-83
2022/02/03 13:52:01;;;;;;;1.80;1.70;;;9.70;99.90;;;;;;5064698;28;21560;-82
2022/02/03 14:22:58;;;;;;;3.37;1.90;;;9.40;99.90;;;;;;5069617;28;20980;-83
2022/02/03 14:28:09;;;;;;;3.07;2.77;;;9.70;99.90;;;;;;5068196;28;20678;-84
2022/02/03 14:30:43;;;;;;;1.80;1.70;;;9.60;99.90;;;;;;5068784;28;20629;-84
2022/02/03 14:33:11;;;;;;;2.80;2.00;;;9.80;99.90;;;;;;5068596;28;20750;-84
2022/02/03 14:35:38;;;;;;;6.13;2.50;;;9.50;99.90;;;;;;5049580;28;20616;-84
2022/02/03 14:38:15;;;;;;;2.67;2.47;;;9.60;99.90;;;;;;5054738;28;20636;-83
2022/02/03 14:40:54;;;;;;;3.93;2.50;;;9.50;99.90;;;;;;5057875;28;20641;-83
2022/02/03 14:43:21;;;;;;;4.63;2.57;;;9.50;99.90;;;;;;5053200;28;20730;-83
2022/02/03 14:45:49;;;;;;;2.27;2.07;;;9.50;99.90;;;;;;5049274;28;20627;-84
2022/02/03 14:48:16;;;;;;;3.43;2.60;;;9.40;99.90;;;;;;5057469;28;20711;-84
2022/02/03 14:50:44;;;;;;;2.33;2.03;;;9.40;99.90;;;;;;5049779;28;20626;-84
2022/02/03 14:53:18;;;;;;;3.00;2.67;;;9.40;99.90;;;;;;5065681;28;20668;-84
2022/02/03 14:58:31;;;;;;;2.93;2.67;;;;;;;;;;5068734;28;20601;-84
2022/02/03 15:00:59;;;;;;;2.93;2.33;;;9.30;99.90;;;;;;5069623;28;20637;-84
2022/02/03 15:03:27;;;;;;;3.70;2.60;;;9.20;99.90;;;;;;5061880;28;20651;-84
2022/02/03 15:05:56;;;;;;;2.90;2.70;;;9.20;99.90;;;;;;5048969;28;20758;-84
2022/02/03 15:08:33;;;;;;;2.47;2.27;;;9.00;99.90;;;;;;5051404;28;20640;-84
2022/02/03 15:11:07;;;;;;;2.70;2.50;;;9.20;99.90;;;;;;5069578;28;20622;-84
2022/02/03 15:13:40;;;;;;;3.20;2.90;;;9.20;99.90;;;;;;5065039;28;21028;-83
2022/02/03 15:16:09;;;;;;;4.23;2.60;;;9.10;99.90;;;;;;5048888;28;20623;-84
2022/02/03 15:18:37;;;;;;;3.37;3.07;;;9.10;99.90;;;;;;5050629;28;20627;-84
2022/02/03 15:21:04;;;;;;;3.30;2.87;;;9.00;99.90;;;;;;5048590;28;20653;-84
2022/02/03 15:23:39;;;;;;;2.30;2.10;;;9.10;99.90;;;;;;5053206;28;20617;-84
2022/02/03 15:26:13;;;;;;;3.80;2.80;;;9.10;99.90;;;;;;5053754;28;20652;-84
2022/02/03 15:28:40;;;;;;;3.20;2.57;;;8.90;99.90;;;;;;5051929;28;20626;-84
2022/02/03 15:31:10;;;;;;;2.97;2.70;;;8.80;99.90;;;;;;5057697;28;20869;-84
2022/02/03 15:33:38;;;;;;;2.83;2.63;;;8.50;99.90;;;;;;5068398;28;20718;-84
2022/02/03 15:36:10;;;;;;;5.43;3.03;;;8.80;99.90;;;;;;5050500;28;20679;-84
2022/02/03 15:38:43;;;;;;;5.53;3.73;;;;;;;;;;5050525;28;20630;-84
2022/02/03 15:41:19;;;;;;;4.00;3.60;;;8.70;99.90;;;;;;5068288;28;20665;-84
2022/02/03 15:43:48;;;;;;;2.83;2.57;;;8.70;99.90;;;;;;5061194;28;20657;-84
2022/02/03 15:46:18;;;;;;;3.80;2.63;;;8.70;99.90;;;;;;5067898;28;21238;-83
2022/02/03 15:48:52;;;;;;;3.57;2.63;;;8.70;99.90;;;;;;5068622;28;20617;-84
2022/02/03 15:56:11;;;;;;;2.23;2.10;;;8.70;99.90;;;;;;5068379;28;20974;-84
2022/02/03 15:57:03;;;;;;;4.17;2.87;;;8.40;99.90;;;;;;5068527;28;20638;-84
2022/02/03 16:18:45;;;;;;;4.27;3.87;;;8.00;99.90;;;;;;5066685;28;20636;-84
2022/02/03 16:21:21;;;;;;;4.10;3.23;;;8.00;99.90;;;;;;5068115;28;20678;-84
2022/02/03 16:24:08;;;;;;;2.63;2.37;;;7.90;99.90;;;;;;5067663;28;20979;-84
2022/02/03 16:51:26;;;;;;;7.77;6.60;;;7.60;99.90;;;;;;5065160;28;20625;-83
2022/02/03 16:53:53;;;;;;;6.53;5.30;;;8.30;99.90;;;;;;5071465;28;20711;-84
2022/02/03 16:56:23;;;;;;;4.70;4.33;;;7.50;99.90;;;;;;5071481;28;20636;-84
2022/02/03 16:58:50;;;;;;;7.43;5.60;;;7.50;99.90;;;;;;5071106;28;20613;-84
2022/02/03 17:01:17;;;;;;;10.23;9.10;;;7.40;99.90;;;;;;5070609;28;20621;-84
2022/02/03 17:03:44;;;;;;;7.80;5.83;;;7.30;99.90;;;;;;5067972;28;20617;-84
2022/02/03 17:06:13;;;;;;;7.00;6.30;;;7.40;99.90;;;;;;5071508;28;20710;-84
2022/02/03 17:08:42;;;;;;;4.40;4.00;;;7.40;99.90;;;;;;5070608;28;20704;-83
2022/02/03 17:11:08;;;;;;;7.10;5.40;;;7.40;99.90;;;;;;5070283;28;20658;-84
2022/02/03 17:13:35;;;;;;;5.30;4.80;;;7.30;99.90;;;;;;5070152;28;21273;-84
2022/02/03 17:16:02;;;;;;;7.70;6.90;;;7.30;99.90;;;;;;5070429;28;20708;-84
2022/02/03 17:18:29;;;;;;;6.83;6.23;;;7.40;99.90;;;;;;5071414;28;20656;-84
2022/02/03 17:20:56;;;;;;;7.53;5.17;;;7.30;99.90;;;;;;5070636;28;20634;-84
2022/02/03 17:23:25;;;;;;;5.43;4.97;;;7.30;99.90;;;;;;5070502;28;20661;-84
2022/02/03 17:26:06;;;;;;;5.30;4.80;;;7.30;99.90;;;;;;5069964;28;20963;-84
2022/02/03 17:28:43;;;;;;;5.57;4.38;;;7.30;99.90;;;;;;5059413;28;20652;-84
2022/02/03 17:31:17;;;;;;;5.23;4.73;;;7.30;99.90;;;;;;5070962;28;20206;-84
2022/02/03 18:10:12;;;;;;;5.40;4.90;;;6.90;99.90;;;;;;5025284;28;20638;-83
2022/02/03 18:35:08;;;;;;;12.52;10.30;;;6.60;99.90;;;;;;5062601;28;20230;-83
2022/02/03 18:45:48;;;;;;;10.20;9.03;;;6.60;99.90;;;;;;5051684;28;20293;-83
2022/02/03 18:51:27;;;;;;;7.78;6.50;;;;;;;;;;5015523;28;20219;-83
2022/02/03 18:54:09;;;;;;;7.40;6.65;;;6.30;99.90;;;;;;5065283;28;20645;-84
2022/02/03 18:56:42;;;;;;;8.52;6.97;;;6.30;99.90;;;;;;5068400;28;20202;-84
2022/02/03 18:59:25;;;;;;;6.18;5.50;;;6.40;99.90;;;;;;5068467;28;20191;-84
2022/02/03 19:02:16;;;;;;;6.85;5.93;;;6.20;99.90;;;;;;5067413;28;20550;-84
2022/02/03 19:14:15;;;;;;;6.30;5.63;;;6.10;99.90;;;;;;5063160;28;20242;-84
2022/02/03 19:16:22;;;;;;;8.07;5.70;;;6.10;99.90;;;;;;5059641;28;20225;-84
2022/02/03 19:24:45;;;;;;;6.60;5.47;;;6.00;99.90;;;;;;5066905;28;20212;-84
2022/02/03 19:58:30;;;;;;;9.07;6.72;;;5.70;99.90;;;;;;5054307;28;20664;-84
2022/02/03 20:06:17;;;;;;;7.68;6.95;;;5.60;99.90;;;;;;5059939;28;20212;-83
2022/02/03 20:08:49;;;;;;;8.13;6.97;;;5.50;99.90;;;;;;5068378;28;20195;-83
2022/02/03 20:11:19;;;;;;;6.20;5.80;;;5.50;99.90;;;;;;5068099;28;20252;-83
2022/02/03 20:13:47;;;;;;;7.07;6.35;;;5.50;99.90;;;;;;5068097;28;20280;-83
2022/02/03 20:16:16;;;;;;;7.47;6.45;;;5.40;99.90;;;;;;5067200;28;20235;-84
2022/02/03 20:18:43;;;;;;;9.75;6.90;;;5.50;99.90;;;;;;5068042;28;20211;-83
2022/02/03 20:21:10;;;;;;;7.22;6.53;;;5.40;99.90;;;;;;5063861;28;20261;-84
2022/02/03 20:23:42;;;;;;;7.32;6.60;;;5.40;99.90;;;;;;5067789;28;20191;-84
2022/02/03 20:26:10;;;;;;;8.13;7.43;;;5.40;99.90;;;;;;5067552;28;20195;-84
2022/02/03 20:28:38;;;;;;;9.18;7.85;;;5.30;99.90;;;;;;5067778;28;20288;-84
2022/02/03 20:31:05;;;;;;;7.68;6.93;;;5.30;99.90;;;;;;5052395;28;20612;-84
2022/02/03 20:33:32;;;;;;;8.02;7.22;;;5.30;99.90;;;;;;5067224;28;20247;-83
2022/02/03 20:36:00;;;;;;;10.90;7.75;;;;;;;;;;5067749;28;20199;-83
2022/02/03 20:38:26;;;;;;;10.40;8.85;;;5.10;99.90;;;;;;5067516;28;20222;-84
2022/02/03 20:40:53;;;;;;;10.70;9.70;;;5.20;99.90;;;;;;5068202;28;20732;-83
2022/02/03 20:43:21;;;;;;;11.48;9.05;;;5.20;99.90;;;;;;5067627;28;20288;-84
2022/02/03 20:45:49;;;;;;;12.35;9.60;;;5.30;99.90;;;;;;5067106;28;20718;-84
2022/02/03 20:48:16;;;;;;;13.02;10.18;;;5.20;99.90;;;;;;5067006;28;20905;-83
2022/02/03 20:50:46;;;;;;;11.75;10.55;;;5.20;99.90;;;;;;5067617;28;20226;-83
2022/02/03 20:53:13;;;;;;;12.35;10.65;;;5.20;99.90;;;;;;5067722;28;20229;-83
2022/02/03 20:55:43;;;;;;;11.98;10.32;;;5.20;99.90;;;;;;5066611;28;20286;-84
2022/02/03 20:58:15;;;;;;;12.15;8.30;;;5.20;99.90;;;;;;5067602;28;20278;-83
2022/02/03 21:00:46;;;;;;;8.70;7.80;;;5.20;99.90;;;;;;5067316;28;20284;-84
2022/02/03 21:03:20;;;;;;;9.50;7.60;;;5.10;99.90;;;;;;5067612;28;20195;-83
2022/02/03 21:05:47;;;;;;;7.55;6.68;;;5.00;99.90;;;;;;5067315;28;20686;-83
2022/02/03 21:08:18;;;;;;;8.88;7.57;;;5.00;99.90;;;;;;5066821;28;20277;-83
2022/02/03 21:10:44;;;;;;;8.85;7.38;;;4.80;99.90;;;;;;5067546;28;20195;-83
2022/02/03 21:13:11;;;;;;;10.63;7.28;;;5.00;99.90;;;;;;5067047;28;20799;-83
2022/02/03 21:15:39;;;;;;;8.85;6.70;;;4.90;99.90;;;;;;5066508;28;20227;-83
2022/02/03 21:18:10;;;;;;;9.00;7.80;;;4.90;99.90;;;;;;5044443;28;20203;-83
2022/02/03 21:20:39;;;;;;;8.93;7.15;;;5.00;99.90;;;;;;5050967;28;20196;-82
2022/02/03 21:23:08;;;;;;;9.05;7.28;;;4.90;99.90;;;;;;5048076;28;20313;-82
2022/02/03 21:25:38;;;;;;;10.77;8.60;;;4.80;99.90;;;;;;5060518;28;20286;-82
2022/02/03 21:28:10;;;;;;;9.07;7.90;;;4.80;99.90;;;;;;5058847;28;20279;-82
2022/02/03 21:30:40;;;;;;;8.82;8.00;;;4.70;99.90;;;;;;5044265;28;20207;-82
2022/02/03 21:33:11;;;;;;;8.23;7.43;;;4.70;99.90;;;;;;5047439;28;20196;-82
2022/02/03 21:35:40;;;;;;;8.73;7.82;;;4.70;99.90;;;;;;5048134;28;20658;-82
2022/02/03 21:38:09;;;;;;;11.15;9.73;;;4.90;99.90;;;;;;5063378;28;20197;-82
2022/02/03 21:40:36;;;;;;;10.40;9.40;;;4.70;99.90;;;;;;5065962;28;20218;-82
2022/02/03 21:43:03;;;;;;;12.98;10.38;;;4.80;99.90;;;;;;5069286;28;20203;-82
2022/02/03 21:45:31;;;;;;;12.38;10.48;;;4.80;99.90;;;;;;5050702;28;20208;-82
2022/02/03 21:47:59;;;;;;;11.90;8.77;;;4.80;99.90;;;;;;5065291;28;20282;-82
2022/02/03 21:50:30;;;;;;;12.65;8.88;;;4.80;99.90;;;;;;5070790;28;20203;-82
2022/02/03 21:52:58;;;;;;;11.48;9.63;;;4.80;99.90;;;;;;5070614;28;20206;-82
2022/02/03 21:55:27;;;;;;;16.55;9.30;;;4.80;99.90;;;;;;5052144;28;20775;-82
2022/02/03 21:57:55;;;;;;;11.32;8.65;;;4.80;99.90;;;;;;5051267;28;20215;-82